• Join FlightAware (Why Join?)
  • Login
  • US Flag 
Rudolph Flight #1: Arrived! 
04:09AM EST


 

Airport Tracker/Info


-or-


 

Live Flight TrackerFlight Track Log ✈ EJA941 ✈ 23-Jun-2013 ✈ KLAS - KMDW

Flight Track Log - Related Links

Times and Time Zones

All times are in EDT time to prevent confusion due to time zone crossing. See the EJA941 flight status page for this flight to view local times or setup timezone preferences in your user account.

Time Position Orientation Groundspeed Altitude Reporting Facility
EDT Latitude Longitude Course Direction KTS MPH feet Rate Location/Type
03:02PM 36.0761 -115.1683 269° West 157 181 3,100  Level Los Angeles Center
03:03PM 36.0750 -115.2431 269° West 211 243 6,000 2,700 Climbing Los Angeles Center
03:04PM 36.1283 -115.3000 319° Northwest 297 342 8,700 3,180 Climbing Los Angeles Center
03:05PM 36.1878 -115.2247 46° Northeast 312 359 12,500 2,580 Climbing Los Angeles Center
03:06PM 36.1983 -115.1039 84° East 359 413 14,000 1,380 Climbing Los Angeles Center
03:08PM 36.1983 -114.9294 90° East 385 443 15,800 1,560 Climbing Los Angeles Center
03:09PM 36.1989 -114.7972 90° East 386 444 17,800 1,740 Climbing Los Angeles Center
03:10PM 36.1975 -114.6636 91° East 387 445 19,400 1,560 Climbing Los Angeles Center
03:11PM 36.1953 -114.5250 91° East 401 461 21,100 1,680 Climbing Los Angeles Center
03:12PM 36.1942 -114.3847 91° East 406 467 22,900 1,740 Climbing Los Angeles Center
03:13PM 36.1925 -114.2414 91° East 415 478 24,800 1,740 Climbing Los Angeles Center
03:14PM 36.2139 -114.0636 81° East 434 499 26,600 1,500 Climbing Los Angeles Center
03:15PM 36.2306 -113.9117 82° East 444 511 28,000 1,260 Climbing Los Angeles Center
03:16PM 36.2511 -113.7542 81° East 457 526 29,300 1,320 Climbing Los Angeles Center
03:17PM 36.2703 -113.5928 82° East 469 540 30,800 1,380 Climbing Los Angeles Center
03:18PM 36.2875 -113.4292 83° East 477 549 32,200 1,200 Climbing Los Angeles Center
03:19PM 36.3078 -113.2597 82° East 489 563 33,400 1,560 Climbing Los Angeles Center
03:20PM 36.3694 -113.0667 68° East 505 581 35,500 1,680 Climbing Los Angeles Center
03:21PM 36.4275 -112.9100 65° Northeast 502 578 36,900 1,620 Climbing Los Angeles Center
03:22PM 36.4892 -112.7544 64° Northeast 504 580 38,900 1,200 Climbing Los Angeles Center
03:23PM 36.5644 -112.6106 57° Northeast 502 578 39,500 600 Climbing Los Angeles Center
03:24PM 36.6422 -112.4608 57° Northeast 514 592 40,200 720 Climbing Los Angeles Center
03:25PM 36.7192 -112.2661 64° Northeast 524 603 41,000 360 Climbing Los Angeles Center
03:26PM 36.7783 -112.0983 66° East 532 612 41,000  Level Los Angeles Center
03:27PM 36.8383 -111.9236 67° East 547 629 41,000  Level Los Angeles Center
03:28PM 36.8983 -111.7461 67° East 556 640 41,000  Level Los Angeles Center
03:29PM 36.9583 -111.5664 67° East 563 648 41,000  Level Los Angeles Center
03:30PM 36.9967 -111.4581 66° East 566 651 41,000  Level Denver Center
03:31PM 37.0661 -111.2433 68° East 562 647 41,000  Level Denver Center
03:32PM 37.1269 -111.0622 67° East 564 649 41,000  Level Denver Center
03:33PM 37.1875 -110.8808 67° East 566 651 41,000  Level Denver Center
03:34PM 37.2464 -110.6994 68° East 565 650 41,000  Level Denver Center
03:35PM 37.3058 -110.5181 68° East 565 650 41,000  Level Denver Center
03:36PM 37.3767 -110.3000 68° East 564 649 41,000  Level Denver Center
03:37PM 37.4344 -110.1206 68° East 566 651 41,000  Level Denver Center
03:38PM 37.4906 -109.9442 68° East 566 651 41,000  Level Denver Center
03:39PM 37.5567 -109.7364 68° East 570 656 41,000  Level Denver Center
03:40PM 37.6136 -109.5569 68° East 573 659 41,000  Level Denver Center
03:41PM 37.6789 -109.3492 68° East 570 656 41,000  Level Denver Center
03:42PM 37.7350 -109.1681 69° East 573 659 41,000  Level Denver Center
03:44PM 37.7992 -108.9614 68° East 567 652 41,000  Level Denver Center
03:45PM 37.8594 -108.7853 67° East 569 655 41,000  Level Denver Center
03:46PM 37.9317 -108.5792 66° East 572 658 41,000  Level Denver Center
03:47PM 37.9919 -108.4056 66° East 565 650 41,000  Level Denver Center
03:48PM 38.0511 -108.2297 67° East 565 650 41,000  Level Denver Center
03:49PM 38.1172 -108.0367 66° East 566 651 41,000  Level Denver Center
03:50PM 38.1864 -107.8319 67° East 566 651 41,000  Level Denver Center
03:51PM 38.2456 -107.6575 67° East 565 650 41,000  Level Denver Center
03:52PM 38.3150 -107.4522 67° East 565 650 41,000  Level Denver Center
03:53PM 38.3739 -107.2756 67° East 567 652 41,000  Level Denver Center
03:54PM 38.4297 -107.1072 67° East 569 655 41,000  Level Denver Center
03:55PM 38.4839 -106.8769 73° East 566 651 41,000  Level Denver Center
03:56PM 38.5222 -106.6839 76° East 565 650 41,000  Level Denver Center
03:57PM 38.5594 -106.4908 76° East 564 649 41,000  Level Denver Center
03:58PM 38.5964 -106.2978 76° East 562 647 41,000  Level Denver Center
03:59PM 38.6358 -106.1014 76° East 568 654 41,000  Level Denver Center
04:00PM 38.6781 -105.8675 77° East 565 650 41,000  Level Denver Center
04:01PM 38.7161 -105.6731 76° East 566 651 41,000  Level Denver Center
04:02PM 38.7514 -105.4783 77° East 564 649 41,000  Level Denver Center
04:03PM 38.7883 -105.2844 76° East 564 649 41,000  Level Denver Center
04:04PM 38.8239 -105.0864 77° East 572 658 41,000  Level Denver Center
04:05PM 38.8600 -104.8906 77° East 568 654 41,000  Level Denver Center
04:06PM 38.9022 -104.6578 77° East 565 650 41,000  Level Denver Center
04:07PM 38.9358 -104.4633 77° East 564 649 41,000  Level Denver Center
04:08PM 38.9697 -104.2697 77° East 562 647 41,000  Level Denver Center
04:09PM 39.0033 -104.0731 78° East 566 651 41,000  Level Denver Center
04:10PM 39.0375 -103.8769 77° East 568 654 41,000  Level Denver Center
04:11PM 39.0775 -103.6422 78° East 563 648 41,000  Level Denver Center
04:12PM 39.1103 -103.4453 78° East 565 650 41,000  Level Denver Center
04:13PM 39.1431 -103.2489 78° East 565 650 41,000  Level Denver Center
04:14PM 39.1756 -103.0514 78° East 568 654 41,000  Level Denver Center
04:15PM 39.2083 -102.8536 78° East 568 654 41,000  Level Denver Center
04:17PM 39.2433 -102.6228 79° East 569 655 41,000  Level Denver Center
04:18PM 39.2750 -102.4311 78° East 570 656 41,000  Level Denver Center
04:19PM 39.3042 -102.2400 79° East 568 654 41,000  Level Denver Center
04:20PM 39.3378 -102.0225 79° East 568 654 41,000  Level Denver Center
04:21PM 39.3717 -101.8011 79° East 564 649 41,000  Level Denver Center
04:22PM 39.4011 -101.6119 79° East 564 649 41,000  Level Denver Center
04:23PM 39.4336 -101.4244 77° East 560 644 41,000  Level Denver Center
04:24PM 39.4708 -101.2081 77° East 555 639 41,000  Level Denver Center
04:25PM 39.5017 -101.0250 78° East 549 632 41,000  Level Denver Center
04:26PM 39.5375 -100.8094 78° East 549 632 41,000  Level Denver Center
04:27PM 39.5678 -100.6256 78° East 548 631 41,000  Level Denver Center
04:28PM 39.6017 -100.4106 78° East 547 629 41,000  Level Denver Center
04:29PM 39.6319 -100.2269 78° East 546 628 41,000  Level Denver Center
04:30PM 39.6661 -100.0133 78° East 544 626 41,000  Level Denver Center
04:31PM 39.6961 -99.8219 78° East 540 621 41,000  Level Denver Center
04:32PM 39.7253 -99.6306 79° East 540 621 41,000  Level Denver Center
04:33PM 39.7544 -99.4375 79° East 544 626 41,000  Level Denver Center
04:34PM 39.7831 -99.2478 79° East 539 620 41,000  Level Denver Center
04:35PM 39.8119 -99.0578 79° East 538 619 41,000  Level Denver Center
04:36PM 39.8406 -98.8711 79° East 534 615 41,000  Level Minneapolis Center
04:37PM 39.8678 -98.6792 79° East 538 619 41,000  Level Minneapolis Center
04:38PM 39.9058 -98.4142 79° East 536 617 41,000  Level Minneapolis Center
04:39PM 39.9319 -98.2261 80° East 532 612 41,000  Level Minneapolis Center
04:40PM 39.9594 -98.0392 79° East 529 609 41,000  Level Minneapolis Center
04:41PM 39.9842 -97.8514 80° East 528 608 41,000  Level Minneapolis Center
04:42PM 40.0100 -97.6633 80° East 529 609 41,000  Level Minneapolis Center
04:43PM 40.0411 -97.4394 80° East 526 605 41,000  Level Minneapolis Center
04:45PM 40.0622 -97.2728 81° East 524 603 41,100 480 Climbing Minneapolis Center
04:46PM 40.0864 -97.0889 80° East 519 597 42,100 780 Climbing Minneapolis Center
04:47PM 40.1150 -96.8744 80° East 507 583 43,000 360 Climbing Minneapolis Center
04:48PM 40.1433 -96.6539 80° East 513 590 43,000  Level Minneapolis Center
04:49PM 40.1661 -96.4650 81° East 522 601 43,000 60 Level Minneapolis Center
04:50PM 40.1900 -96.2781 80° East 525 604 43,200 480 Climbing Minneapolis Center
04:51PM 40.2194 -96.0942 78° East 521 600 44,000 480 Climbing Minneapolis Center
04:52PM 40.2539 -95.9078 76° East 525 604 44,300 240 Climbing Minneapolis Center
04:53PM 40.2961 -95.6836 76° East 529 609 44,600 240 Climbing Minneapolis Center
04:54PM 40.3308 -95.4950 76° East 532 612 44,900 180 Climbing Minneapolis Center
04:55PM 40.3644 -95.3075 77° East 532 612 45,000  Climbing Minneapolis Center
04:56PM 40.3983 -95.1175 77° East 535 616 45,000  Level Minneapolis Center
04:57PM 40.4333 -94.9269 76° East 537 618 45,000  Level Minneapolis Center
04:58PM 40.4728 -94.7008 77° East 534 615 45,000  Level Minneapolis Center
04:59PM 40.5033 -94.5164 78° East 534 615 45,000  Level Minneapolis Center
05:00PM 40.5361 -94.3275 77° East 535 616 45,000  Level Minneapolis Center
05:01PM 40.5678 -94.1389 77° East 534 615 45,000  Level Minneapolis Center
05:02PM 40.6047 -93.9108 78° East 534 615 45,000  Level Minneapolis Center
05:03PM 40.6328 -93.7194 79° East 536 617 45,000  Level Minneapolis Center
05:04PM 40.6547 -93.5669 79° East 532 612 45,000  Level Chicago Center
05:05PM 40.6817 -93.3814 79° East 519 597 45,000  Level Chicago Center
05:06PM 40.7083 -93.1992 79° East 510 587 45,000  Level Chicago Center
05:07PM 40.7325 -93.0239 80° East 493 567 45,000  Level Chicago Center
05:08PM 40.7578 -92.8475 79° East 489 563 45,000 -120 Level Chicago Center
05:09PM 40.7869 -92.6328 80° East 495 570 44,800 -780 Descending Chicago Center
05:10PM 40.8103 -92.4567 80° East 489 563 43,500 -1,500 Descending Chicago Center
05:11PM 40.8342 -92.2828 80° East 484 557 41,800 -1,620 Descending Chicago Center
05:12PM 40.8575 -92.1069 80° East 487 560 40,200 -1,500 Descending Chicago Center
05:13PM 40.8797 -91.9322 80° East 484 557 38,800 -1,680 Descending Chicago Center
05:15PM 40.9092 -91.7158 80° East 496 571 36,800 -2,100 Descending Chicago Center
05:16PM 40.9300 -91.5375 81° East 497 572 34,500 -2,280 Descending Chicago Center
05:17PM 40.9517 -91.3697 80° East 476 548 32,100 -1,740 Descending Chicago Center
05:18PM 40.9733 -91.2031 80° East 458 527 31,000 -600 Descending Chicago Center
05:19PM 40.9817 -91.0381 86° East 451 519 30,900 -900 Descending Chicago Center
05:20PM 40.9728 -90.8642 94° East 471 542 29,200 -1,860 Descending Chicago Center
05:21PM 40.9633 -90.6822 94° East 493 567 27,100 -2,760 Descending Chicago Center
05:22PM 40.9514 -90.4728 94° East 477 549 23,500 -3,480 Descending Chicago Center
05:23PM 40.9406 -90.3078 95° East 456 525 20,000 -3,600 Descending Chicago Center
05:24PM 40.9286 -90.1494 96° East 444 511 16,100 -3,360 Descending Chicago Center
05:25PM 40.9189 -89.9886 95° East 426 490 13,100 -2,160 Descending Chicago Center
05:26PM 40.9108 -89.8489 94° East 380 437 11,700 -1,020 Descending Chicago Center
05:27PM 40.9033 -89.7136 94° East 365 420 11,100 -360 Descending Chicago Center
05:28PM 40.8972 -89.5872 94° East 345 397 11,000  Descending Chicago Center
05:29PM 40.8975 -89.4561 90° East 354 407 11,100  Climbing Chicago Center
05:30PM 40.9300 -89.3036 74° East 360 414 11,100 -300 Level Chicago Center
05:31PM 40.9614 -89.1772 72° East 361 415 10,600 -600 Descending Chicago Center
05:32PM 41.0178 -89.0650 56° Northeast 353 406 9,900 -540 Descending Chicago Center
05:33PM 41.0742 -88.9872 46° Northeast 302 348 9,500 -540 Descending Chicago Center
05:34PM 41.1344 -88.9061 45° Northeast 309 356 8,900 -540 Descending Chicago Center
05:35PM 41.1908 -88.8264 47° Northeast 302 348 8,400 -540 Descending Chicago Center
05:36PM 41.2281 -88.7400 60° Northeast 284 327 7,900 -840 Descending Chicago Center
05:37PM 41.2281 -88.6233 90° East 267 307 6,700 -900 Descending Chicago Center
05:38PM 41.2286 -88.5308 90° East 257 296 6,100 -360 Descending Chicago Center
05:39PM 41.2131 -88.4536 105° East 249 287 6,000 -60 Descending Chicago Center
05:40PM 41.1511 -88.4547 181° South 240 276 6,000  Level Chicago Center
05:41PM 41.1300 -88.5156 245° Southwest 223 257 6,100  Climbing Chicago Center
05:42PM 41.2033 -88.5142 North 239 275 6,100 -60 Level Chicago Center
05:43PM 41.2644 -88.4733 27° Northeast 244 281 6,000 -60 Descending Chicago Center
05:45PM 41.3358 -88.4297 25° Northeast 273 314 6,000  Level Chicago Center
05:46PM 41.4108 -88.3897 22° Northeast 285 328 6,000  Level Chicago Center
05:47PM 41.4750 -88.3339 33° Northeast 282 325 6,000  Level Chicago Center
05:48PM 41.4994 -88.2319 72° East 283 326 6,000  Level Chicago Center
05:49PM 41.5244 -88.1308 72° East 284 327 6,000 -540 Level Chicago Center
05:50PM 41.5550 -88.0075 72° East 288 331 5,000 -540 Descending Chicago Center
05:51PM 41.5719 -87.9050 78° East 284 327 5,000  Level Chicago Center
05:52PM 41.5744 -87.8022 88° East 280 322 5,000 -300 Level Chicago Center
05:53PM 41.5794 -87.7100 86° East 265 305 4,500 -540 Descending Chicago Center
05:54PM 41.5981 -87.6331 72° East 248 285 4,000 -300 Descending Chicago Center
05:55PM 41.6464 -87.5997 27° Northeast 233 268 4,000 -660 Level Chicago Center
05:56PM 41.7039 -87.6358 335° Northwest 206 237 2,700 -1,020 Descending Chicago Center
05:57PM 41.7361 -87.6833 312° West 188 216 2,000 -540 Descending Chicago Center
05:58PM 41.7739 -87.7100 332° Northwest 175 201 1,700 -180 Descending Chicago Center
05:59PM 41.8128 -87.6914 20° North 173 199 1,700 -360 Level Chicago Center
06:00PM 41.8022 -87.7308 250° West 147 169 1,000 -720 Descending Chicago Center